sensor_id;sensor_type;location;lat;lon;timestamp;temperature;humidity
48488;DHT22;34289;48.572;13.378;2023-03-08T00:00:15;3.10;99.90
48488;DHT22;34289;48.572;13.378;2023-03-08T00:02:42;2.90;99.90
48488;DHT22;34289;48.572;13.378;2023-03-08T00:05:08;2.80;99.90
48488;DHT22;34289;48.572;13.378;2023-03-08T00:07:34;2.70;99.90
48488;DHT22;34289;48.572;13.378;2023-03-08T00:09:59;2.70;99.90
48488;DHT22;34289;48.572;13.378;2023-03-08T00:12:25;2.40;99.90
48488;DHT22;34289;48.572;13.378;2023-03-08T00:14:50;2.60;99.90
48488;DHT22;34289;48.572;13.378;2023-03-08T00:17:17;2.20;99.90
48488;DHT22;34289;48.572;13.378;2023-03-08T00:19:43;2.40;99.90
48488;DHT22;34289;48.572;13.378;2023-03-08T00:22:09;2.30;99.90
48488;DHT22;34289;48.572;13.378;2023-03-08T00:24:35;2.10;99.90
48488;DHT22;34289;48.572;13.378;2023-03-08T00:27:00;1.90;99.90
48488;DHT22;34289;48.572;13.378;2023-03-08T00:29:26;1.90;99.90
48488;DHT22;34289;48.572;13.378;2023-03-08T00:31:51;1.90;99.90
48488;DHT22;34289;48.572;13.378;2023-03-08T00:34:17;2.00;99.90
48488;DHT22;34289;48.572;13.378;2023-03-08T00:36:43;2.00;99.90
48488;DHT22;34289;48.572;13.378;2023-03-08T00:39:09;1.60;99.90
48488;DHT22;34289;48.572;13.378;2023-03-08T00:41:36;1.60;99.90
48488;DHT22;34289;48.572;13.378;2023-03-08T00:44:01;3.00;99.90
48488;DHT22;34289;48.572;13.378;2023-03-08T00:46:27;1.40;99.90
48488;DHT22;34289;48.572;13.378;2023-03-08T00:48:53;1.40;99.90
48488;DHT22;34289;48.572;13.378;2023-03-08T00:51:19;1.60;99.90
48488;DHT22;34289;48.572;13.378;2023-03-08T00:53:45;1.50;99.90
48488;DHT22;34289;48.572;13.378;2023-03-08T00:56:11;2.70;99.90
48488;DHT22;34289;48.572;13.378;2023-03-08T00:58:39;1.70;99.90
48488;DHT22;34289;48.572;13.378;2023-03-08T01:01:06;1.70;99.90
48488;DHT22;34289;48.572;13.378;2023-03-08T01:03:32;1.90;99.90
48488;DHT22;34289;48.572;13.378;2023-03-08T01:05:58;1.90;99.90
48488;DHT22;34289;48.572;13.378;2023-03-08T01:08:29;2.00;99.90
48488;DHT22;34289;48.572;13.378;2023-03-08T01:10:56;2.10;99.90
48488;DHT22;34289;48.572;13.378;2023-03-08T01:13:24;2.10;99.90
48488;DHT22;34289;48.572;13.378;2023-03-08T01:15:50;2.20;99.90
48488;DHT22;34289;48.572;13.378;2023-03-08T01:18:15;2.30;99.90
48488;DHT22;34289;48.572;13.378;2023-03-08T01:20:41;2.30;99.90
48488;DHT22;34289;48.572;13.378;2023-03-08T01:23:07;2.50;99.90
48488;DHT22;34289;48.572;13.378;2023-03-08T01:25:32;2.60;99.90
48488;DHT22;34289;48.572;13.378;2023-03-08T01:27:58;2.80;99.90
48488;DHT22;34289;48.572;13.378;2023-03-08T01:30:24;2.90;99.90
48488;DHT22;34289;48.572;13.378;2023-03-08T01:32:49;2.90;99.90
48488;DHT22;34289;48.572;13.378;2023-03-08T01:35:15;3.00;99.90
48488;DHT22;34289;48.572;13.378;2023-03-08T01:37:41;3.10;99.90
48488;DHT22;34289;48.572;13.378;2023-03-08T01:40:07;3.10;99.90
48488;DHT22;34289;48.572;13.378;2023-03-08T01:42:33;3.30;99.90
48488;DHT22;34289;48.572;13.378;2023-03-08T01:45:04;3.40;99.90
48488;DHT22;34289;48.572;13.378;2023-03-08T01:47:32;3.60;99.90
48488;DHT22;34289;48.572;13.378;2023-03-08T01:50:06;3.80;99.90
48488;DHT22;34289;48.572;13.378;2023-03-08T01:52:40;3.80;99.90
48488;DHT22;34289;48.572;13.378;2023-03-08T01:55:09;3.90;99.90
48488;DHT22;34289;48.572;13.378;2023-03-08T02:00:17;3.80;99.90
48488;DHT22;34289;48.572;13.378;2023-03-08T02:03:05;3.90;99.90
48488;DHT22;34289;48.572;13.378;2023-03-08T02:05:33;4.00;99.90
48488;DHT22;34289;48.572;13.378;2023-03-08T02:08:00;4.50;99.90
48488;DHT22;34289;48.572;13.378;2023-03-08T02:10:26;4.00;99.90
48488;DHT22;34289;48.572;13.378;2023-03-08T02:12:52;4.00;99.90
48488;DHT22;34289;48.572;13.378;2023-03-08T02:15:19;3.90;99.90
48488;DHT22;34289;48.572;13.378;2023-03-08T02:17:45;4.00;99.90
48488;DHT22;34289;48.572;13.378;2023-03-08T02:22:42;4.00;99.90
48488;DHT22;34289;48.572;13.378;2023-03-08T02:27:44;4.10;99.90
48488;DHT22;34289;48.572;13.378;2023-03-08T02:30:13;5.00;99.90
48488;DHT22;34289;48.572;13.378;2023-03-08T02:32:39;4.30;99.90
48488;DHT22;34289;48.572;13.378;2023-03-08T02:35:05;4.30;99.90
48488;DHT22;34289;48.572;13.378;2023-03-08T02:37:34;4.30;99.90
48488;DHT22;34289;48.572;13.378;2023-03-08T02:40:00;4.20;99.90
48488;DHT22;34289;48.572;13.378;2023-03-08T02:42:25;4.30;99.90
48488;DHT22;34289;48.572;13.378;2023-03-08T02:44:51;4.20;99.90
48488;DHT22;34289;48.572;13.378;2023-03-08T02:47:16;4.30;99.90
48488;DHT22;34289;48.572;13.378;2023-03-08T02:49:42;4.20;99.90
48488;DHT22;34289;48.572;13.378;2023-03-08T02:52:10;4.50;99.90
48488;DHT22;34289;48.572;13.378;2023-03-08T02:54:36;4.10;99.90
48488;DHT22;34289;48.572;13.378;2023-03-08T02:57:01;4.10;99.90
48488;DHT22;34289;48.572;13.378;2023-03-08T02:59:27;4.20;99.90
48488;DHT22;34289;48.572;13.378;2023-03-08T03:01:53;4.00;99.90
48488;DHT22;34289;48.572;13.378;2023-03-08T03:04:18;4.00;99.90
48488;DHT22;34289;48.572;13.378;2023-03-08T03:06:44;4.00;99.90
48488;DHT22;34289;48.572;13.378;2023-03-08T03:09:10;4.20;99.90
48488;DHT22;34289;48.572;13.378;2023-03-08T03:11:39;4.10;99.90
48488;DHT22;34289;48.572;13.378;2023-03-08T03:14:04;4.10;99.90
48488;DHT22;34289;48.572;13.378;2023-03-08T03:16:30;4.00;99.90
48488;DHT22;34289;48.572;13.378;2023-03-08T03:18:56;4.20;99.90
48488;DHT22;34289;48.572;13.378;2023-03-08T03:21:22;4.80;99.90
48488;DHT22;34289;48.572;13.378;2023-03-08T03:23:48;4.00;99.90
48488;DHT22;34289;48.572;13.378;2023-03-08T03:26:17;4.00;99.90
48488;DHT22;34289;48.572;13.378;2023-03-08T03:28:43;4.70;99.90
48488;DHT22;34289;48.572;13.378;2023-03-08T03:31:15;4.20;99.90
48488;DHT22;34289;48.572;13.378;2023-03-08T03:33:41;4.20;99.90
48488;DHT22;34289;48.572;13.378;2023-03-08T03:36:09;5.00;99.90
48488;DHT22;34289;48.572;13.378;2023-03-08T03:38:35;4.20;99.90
48488;DHT22;34289;48.572;13.378;2023-03-08T03:41:16;4.20;99.90
48488;DHT22;34289;48.572;13.378;2023-03-08T03:43:42;4.10;99.90
48488;DHT22;34289;48.572;13.378;2023-03-08T03:46:11;4.30;99.90
48488;DHT22;34289;48.572;13.378;2023-03-08T03:48:37;5.10;99.90
48488;DHT22;34289;48.572;13.378;2023-03-08T03:51:09;4.40;99.90
48488;DHT22;34289;48.572;13.378;2023-03-08T03:53:35;4.40;99.90
48488;DHT22;34289;48.572;13.378;2023-03-08T03:56:22;4.40;99.90
48488;DHT22;34289;48.572;13.378;2023-03-08T03:58:49;4.90;99.90
48488;DHT22;34289;48.572;13.378;2023-03-08T04:01:20;4.30;99.90
48488;DHT22;34289;48.572;13.378;2023-03-08T04:03:47;4.30;99.90
48488;DHT22;34289;48.572;13.378;2023-03-08T04:06:27;4.20;99.90
48488;DHT22;34289;48.572;13.378;2023-03-08T04:09:04;4.10;99.90
48488;DHT22;34289;48.572;13.378;2023-03-08T04:11:36;4.10;99.90
48488;DHT22;34289;48.572;13.378;2023-03-08T04:14:02;4.60;99.90
48488;DHT22;34289;48.572;13.378;2023-03-08T04:16:30;3.90;99.90
48488;DHT22;34289;48.572;13.378;2023-03-08T04:19:10;4.10;99.90
48488;DHT22;34289;48.572;13.378;2023-03-08T04:21:36;3.90;99.90
48488;DHT22;34289;48.572;13.378;2023-03-08T04:24:02;3.80;99.90
48488;DHT22;34289;48.572;13.378;2023-03-08T04:26:28;3.90;99.90
48488;DHT22;34289;48.572;13.378;2023-03-08T04:28:53;3.80;99.90
48488;DHT22;34289;48.572;13.378;2023-03-08T04:31:20;4.00;99.90
48488;DHT22;34289;48.572;13.378;2023-03-08T04:33:46;3.80;99.90
48488;DHT22;34289;48.572;13.378;2023-03-08T04:36:13;3.70;99.90
48488;DHT22;34289;48.572;13.378;2023-03-08T04:38:40;3.60;99.90
48488;DHT22;34289;48.572;13.378;2023-03-08T04:41:05;3.70;99.90
48488;DHT22;34289;48.572;13.378;2023-03-08T04:46:05;3.70;99.90
48488;DHT22;34289;48.572;13.378;2023-03-08T04:48:31;3.70;99.90
48488;DHT22;34289;48.572;13.378;2023-03-08T04:50:58;4.50;99.90
48488;DHT22;34289;48.572;13.378;2023-03-08T04:53:25;3.80;99.90
48488;DHT22;34289;48.572;13.378;2023-03-08T04:55:51;3.90;99.90
48488;DHT22;34289;48.572;13.378;2023-03-08T04:58:17;3.90;99.90
48488;DHT22;34289;48.572;13.378;2023-03-08T05:00:43;4.90;99.90
48488;DHT22;34289;48.572;13.378;2023-03-08T05:03:09;3.90;99.90
48488;DHT22;34289;48.572;13.378;2023-03-08T05:05:35;3.60;99.90
48488;DHT22;34289;48.572;13.378;2023-03-08T05:08:01;3.40;99.90
48488;DHT22;34289;48.572;13.378;2023-03-08T05:10:31;3.40;99.90
48488;DHT22;34289;48.572;13.378;2023-03-08T05:12:57;4.60;99.90
48488;DHT22;34289;48.572;13.378;2023-03-08T05:15:23;3.20;99.90
48488;DHT22;34289;48.572;13.378;2023-03-08T05:17:49;3.10;99.90
48488;DHT22;34289;48.572;13.378;2023-03-08T05:20:15;3.20;99.90
48488;DHT22;34289;48.572;13.378;2023-03-08T05:22:40;3.10;99.90
48488;DHT22;34289;48.572;13.378;2023-03-08T05:25:07;3.10;99.90
48488;DHT22;34289;48.572;13.378;2023-03-08T05:27:33;3.10;99.90
48488;DHT22;34289;48.572;13.378;2023-03-08T05:29:59;2.80;99.90
48488;DHT22;34289;48.572;13.378;2023-03-08T05:32:24;3.00;99.90
48488;DHT22;34289;48.572;13.378;2023-03-08T05:34:53;3.00;99.90
48488;DHT22;34289;48.572;13.378;2023-03-08T05:37:18;3.00;99.90
48488;DHT22;34289;48.572;13.378;2023-03-08T05:39:46;3.00;99.90
48488;DHT22;34289;48.572;13.378;2023-03-08T05:42:12;5.50;99.90
48488;DHT22;34289;48.572;13.378;2023-03-08T05:44:38;2.90;99.90
48488;DHT22;34289;48.572;13.378;2023-03-08T05:47:04;2.80;99.90
48488;DHT22;34289;48.572;13.378;2023-03-08T05:49:29;2.90;99.90
48488;DHT22;34289;48.572;13.378;2023-03-08T05:51:55;2.90;99.90
48488;DHT22;34289;48.572;13.378;2023-03-08T05:54:21;2.70;99.90
48488;DHT22;34289;48.572;13.378;2023-03-08T05:56:47;2.40;99.90
48488;DHT22;34289;48.572;13.378;2023-03-08T05:59:13;2.30;99.90
48488;DHT22;34289;48.572;13.378;2023-03-08T06:01:38;2.40;99.90
48488;DHT22;34289;48.572;13.378;2023-03-08T06:04:04;2.40;99.90
48488;DHT22;34289;48.572;13.378;2023-03-08T06:06:30;2.60;99.90
48488;DHT22;34289;48.572;13.378;2023-03-08T06:08:55;2.50;99.90
48488;DHT22;34289;48.572;13.378;2023-03-08T06:11:21;2.40;99.90
48488;DHT22;34289;48.572;13.378;2023-03-08T06:13:47;2.40;99.90
48488;DHT22;34289;48.572;13.378;2023-03-08T06:16:13;2.60;99.90
48488;DHT22;34289;48.572;13.378;2023-03-08T06:18:40;2.70;99.90
48488;DHT22;34289;48.572;13.378;2023-03-08T06:21:14;3.00;99.90
48488;DHT22;34289;48.572;13.378;2023-03-08T06:23:40;2.80;99.90
48488;DHT22;34289;48.572;13.378;2023-03-08T06:26:07;2.80;99.90
48488;DHT22;34289;48.572;13.378;2023-03-08T06:28:33;2.90;99.90
48488;DHT22;34289;48.572;13.378;2023-03-08T06:30:58;3.20;99.90
48488;DHT22;34289;48.572;13.378;2023-03-08T06:33:30;4.60;99.90
48488;DHT22;34289;48.572;13.378;2023-03-08T06:36:07;4.50;99.90
48488;DHT22;34289;48.572;13.378;2023-03-08T06:38:34;3.80;99.90
48488;DHT22;34289;48.572;13.378;2023-03-08T06:41:01;3.80;99.90
48488;DHT22;34289;48.572;13.378;2023-03-08T06:43:27;3.90;99.90
48488;DHT22;34289;48.572;13.378;2023-03-08T06:45:53;4.00;99.90
48488;DHT22;34289;48.572;13.378;2023-03-08T06:48:19;5.10;99.90
48488;DHT22;34289;48.572;13.378;2023-03-08T06:50:45;5.70;99.90
48488;DHT22;34289;48.572;13.378;2023-03-08T06:53:12;4.60;99.90
48488;DHT22;34289;48.572;13.378;2023-03-08T06:55:39;5.00;99.90
48488;DHT22;34289;48.572;13.378;2023-03-08T06:58:07;4.70;99.90
48488;DHT22;34289;48.572;13.378;2023-03-08T07:00:33;5.00;99.90
48488;DHT22;34289;48.572;13.378;2023-03-08T07:03:01;5.10;99.90
48488;DHT22;34289;48.572;13.378;2023-03-08T07:05:27;5.30;99.90
48488;DHT22;34289;48.572;13.378;2023-03-08T07:07:53;5.60;99.90
48488;DHT22;34289;48.572;13.378;2023-03-08T07:10:20;6.10;99.90
48488;DHT22;34289;48.572;13.378;2023-03-08T07:12:47;6.70;99.90
48488;DHT22;34289;48.572;13.378;2023-03-08T07:15:17;6.80;99.90
48488;DHT22;34289;48.572;13.378;2023-03-08T07:17:44;6.70;99.90
48488;DHT22;34289;48.572;13.378;2023-03-08T07:20:11;6.70;99.90
48488;DHT22;34289;48.572;13.378;2023-03-08T07:22:39;7.10;99.90
48488;DHT22;34289;48.572;13.378;2023-03-08T07:25:07;7.60;99.90
48488;DHT22;34289;48.572;13.378;2023-03-08T07:27:32;7.70;99.90
48488;DHT22;34289;48.572;13.378;2023-03-08T07:29:58;7.70;99.90
48488;DHT22;34289;48.572;13.378;2023-03-08T07:32:24;7.90;99.90
48488;DHT22;34289;48.572;13.378;2023-03-08T07:34:56;8.40;99.90
48488;DHT22;34289;48.572;13.378;2023-03-08T07:37:22;9.60;99.90
48488;DHT22;34289;48.572;13.378;2023-03-08T07:39:48;9.90;99.90
48488;DHT22;34289;48.572;13.378;2023-03-08T07:42:14;10.50;99.70
48488;DHT22;34289;48.572;13.378;2023-03-08T07:44:39;10.30;99.20
48488;DHT22;34289;48.572;13.378;2023-03-08T07:47:05;10.00;99.20
48488;DHT22;34289;48.572;13.378;2023-03-08T07:49:31;9.30;99.90
48488;DHT22;34289;48.572;13.378;2023-03-08T07:51:57;8.40;99.90
48488;DHT22;34289;48.572;13.378;2023-03-08T07:54:22;8.30;99.90
48488;DHT22;34289;48.572;13.378;2023-03-08T07:56:50;7.20;99.90
48488;DHT22;34289;48.572;13.378;2023-03-08T07:59:15;7.10;99.90
48488;DHT22;34289;48.572;13.378;2023-03-08T08:01:41;8.40;99.90
48488;DHT22;34289;48.572;13.378;2023-03-08T08:04:06;6.70;99.90
48488;DHT22;34289;48.572;13.378;2023-03-08T08:06:34;7.20;99.90
48488;DHT22;34289;48.572;13.378;2023-03-08T08:09:01;6.50;99.90
48488;DHT22;34289;48.572;13.378;2023-03-08T08:11:27;6.50;99.90
48488;DHT22;34289;48.572;13.378;2023-03-08T08:13:52;6.40;99.90
48488;DHT22;34289;48.572;13.378;2023-03-08T08:16:18;6.10;99.90
48488;DHT22;34289;48.572;13.378;2023-03-08T08:18:44;6.10;99.90
48488;DHT22;34289;48.572;13.378;2023-03-08T08:21:13;6.90;99.90
48488;DHT22;34289;48.572;13.378;2023-03-08T08:23:40;6.30;99.90
48488;DHT22;34289;48.572;13.378;2023-03-08T08:26:09;7.30;99.90
48488;DHT22;34289;48.572;13.378;2023-03-08T08:28:36;8.00;99.90
48488;DHT22;34289;48.572;13.378;2023-03-08T08:31:08;7.20;99.90
48488;DHT22;34289;48.572;13.378;2023-03-08T08:33:35;7.90;99.90
48488;DHT22;34289;48.572;13.378;2023-03-08T08:36:03;7.10;99.90
48488;DHT22;34289;48.572;13.378;2023-03-08T08:38:29;6.80;99.90
48488;DHT22;34289;48.572;13.378;2023-03-08T08:41:02;6.60;99.90
48488;DHT22;34289;48.572;13.378;2023-03-08T08:43:29;6.60;99.90
48488;DHT22;34289;48.572;13.378;2023-03-08T08:45:57;7.00;99.90
48488;DHT22;34289;48.572;13.378;2023-03-08T08:48:23;6.80;99.90
48488;DHT22;34289;48.572;13.378;2023-03-08T08:50:50;7.10;99.90
48488;DHT22;34289;48.572;13.378;2023-03-08T08:53:15;7.70;99.90
48488;DHT22;34289;48.572;13.378;2023-03-08T08:55:41;7.90;99.90
48488;DHT22;34289;48.572;13.378;2023-03-08T08:58:07;8.20;99.90
48488;DHT22;34289;48.572;13.378;2023-03-08T09:00:34;8.90;99.90
48488;DHT22;34289;48.572;13.378;2023-03-08T09:03:00;9.10;99.90
48488;DHT22;34289;48.572;13.378;2023-03-08T09:05:26;8.90;99.90
48488;DHT22;34289;48.572;13.378;2023-03-08T09:07:56;8.90;99.70
48488;DHT22;34289;48.572;13.378;2023-03-08T09:10:27;9.50;99.90
48488;DHT22;34289;48.572;13.378;2023-03-08T09:12:53;10.80;99.50
48488;DHT22;34289;48.572;13.378;2023-03-08T09:15:19;11.20;97.20
48488;DHT22;34289;48.572;13.378;2023-03-08T09:17:46;11.80;96.10
48488;DHT22;34289;48.572;13.378;2023-03-08T09:20:12;12.10;94.80
48488;DHT22;34289;48.572;13.378;2023-03-08T09:22:38;12.30;94.20
48488;DHT22;34289;48.572;13.378;2023-03-08T09:25:06;12.50;94.50
48488;DHT22;34289;48.572;13.378;2023-03-08T09:27:32;12.90;93.40
48488;DHT22;34289;48.572;13.378;2023-03-08T09:29:58;13.30;93.00
48488;DHT22;34289;48.572;13.378;2023-03-08T09:32:24;13.70;91.50
48488;DHT22;34289;48.572;13.378;2023-03-08T09:34:50;13.50;91.40
48488;DHT22;34289;48.572;13.378;2023-03-08T09:37:16;12.90;90.60
48488;DHT22;34289;48.572;13.378;2023-03-08T09:39:43;12.30;90.40
48488;DHT22;34289;48.572;13.378;2023-03-08T09:42:20;12.30;90.10
48488;DHT22;34289;48.572;13.378;2023-03-08T09:56:28;10.60;91.80
48488;DHT22;34289;48.572;13.378;2023-03-08T09:59:09;10.20;91.60
48488;DHT22;34289;48.572;13.378;2023-03-08T10:01:57;9.80;93.10
48488;DHT22;34289;48.572;13.378;2023-03-08T10:12:25;8.90;95.20
48488;DHT22;34289;48.572;13.378;2023-03-08T10:15:18;9.50;95.30
48488;DHT22;34289;48.572;13.378;2023-03-08T10:17:49;8.60;95.30
48488;DHT22;34289;48.572;13.378;2023-03-08T10:20:28;8.40;96.00
48488;DHT22;34289;48.572;13.378;2023-03-08T10:23:05;8.30;96.80
48488;DHT22;34289;48.572;13.378;2023-03-08T10:25:34;8.50;96.50
48488;DHT22;34289;48.572;13.378;2023-03-08T10:28:02;8.50;95.80
48488;DHT22;34289;48.572;13.378;2023-03-08T10:31:00;8.60;97.50
48488;DHT22;34289;48.572;13.378;2023-03-08T10:33:31;8.50;96.70
48488;DHT22;34289;48.572;13.378;2023-03-08T10:36:05;8.50;97.60
48488;DHT22;34289;48.572;13.378;2023-03-08T10:38:35;8.40;97.10
48488;DHT22;34289;48.572;13.378;2023-03-08T10:41:09;8.50;98.10
48488;DHT22;34289;48.572;13.378;2023-03-08T10:43:51;8.50;97.50
48488;DHT22;34289;48.572;13.378;2023-03-08T10:46:23;8.40;98.40
48488;DHT22;34289;48.572;13.378;2023-03-08T10:48:50;8.60;97.70
48488;DHT22;34289;48.572;13.378;2023-03-08T10:51:22;8.80;98.10
48488;DHT22;34289;48.572;13.378;2023-03-08T10:53:58;8.40;97.50
48488;DHT22;34289;48.572;13.378;2023-03-08T10:56:39;8.60;97.70
48488;DHT22;34289;48.572;13.378;2023-03-08T10:59:21;8.70;98.80
48488;DHT22;34289;48.572;13.378;2023-03-08T11:01:55;8.70;97.30
48488;DHT22;34289;48.572;13.378;2023-03-08T11:04:23;8.70;97.90
48488;DHT22;34289;48.572;13.378;2023-03-08T11:06:49;8.40;97.80
48488;DHT22;34289;48.572;13.378;2023-03-08T11:11:47;8.30;99.00
48488;DHT22;34289;48.572;13.378;2023-03-08T11:14:14;8.30;99.70
48488;DHT22;34289;48.572;13.378;2023-03-08T11:27:48;8.10;98.80
48488;DHT22;34289;48.572;13.378;2023-03-08T11:30:26;8.10;98.90
48488;DHT22;34289;48.572;13.378;2023-03-08T11:33:13;8.00;98.90
48488;DHT22;34289;48.572;13.378;2023-03-08T11:38:32;8.00;99.90
48488;DHT22;34289;48.572;13.378;2023-03-08T11:49:08;7.90;99.90
48488;DHT22;34289;48.572;13.378;2023-03-08T11:51:47;7.80;99.90
48488;DHT22;34289;48.572;13.378;2023-03-08T11:57:08;7.90;99.50
48488;DHT22;34289;48.572;13.378;2023-03-08T11:59:42;8.10;99.90
48488;DHT22;34289;48.572;13.378;2023-03-08T12:02:21;8.10;99.90
48488;DHT22;34289;48.572;13.378;2023-03-08T12:13:11;8.10;99.90
48488;DHT22;34289;48.572;13.378;2023-03-08T12:15:46;8.10;99.90
48488;DHT22;34289;48.572;13.378;2023-03-08T12:18:17;8.20;99.90
48488;DHT22;34289;48.572;13.378;2023-03-08T12:20:44;9.10;99.30
48488;DHT22;34289;48.572;13.378;2023-03-08T12:23:27;8.30;99.50
48488;DHT22;34289;48.572;13.378;2023-03-08T12:26:18;8.30;99.60
48488;DHT22;34289;48.572;13.378;2023-03-08T12:28:55;8.20;99.60
48488;DHT22;34289;48.572;13.378;2023-03-08T12:31:41;8.10;99.90
48488;DHT22;34289;48.572;13.378;2023-03-08T12:34:21;8.20;99.90
48488;DHT22;34289;48.572;13.378;2023-03-08T12:36:49;8.20;99.60
48488;DHT22;34289;48.572;13.378;2023-03-08T12:39:30;7.90;99.90
48488;DHT22;34289;48.572;13.378;2023-03-08T12:44:32;8.30;99.90
48488;DHT22;34289;48.572;13.378;2023-03-08T12:49:40;8.40;99.20
48488;DHT22;34289;48.572;13.378;2023-03-08T12:54:56;8.50;99.00
48488;DHT22;34289;48.572;13.378;2023-03-08T12:57:27;8.50;99.10
48488;DHT22;34289;48.572;13.378;2023-03-08T12:59:59;8.50;99.10
48488;DHT22;34289;48.572;13.378;2023-03-08T13:02:31;8.60;99.30
48488;DHT22;34289;48.572;13.378;2023-03-08T13:05:18;8.60;99.00
48488;DHT22;34289;48.572;13.378;2023-03-08T13:10:58;8.60;99.90
48488;DHT22;34289;48.572;13.378;2023-03-08T13:13:37;8.40;99.90
48488;DHT22;34289;48.572;13.378;2023-03-08T13:18:58;8.30;99.90
48488;DHT22;34289;48.572;13.378;2023-03-08T13:21:32;8.90;99.90
48488;DHT22;34289;48.572;13.378;2023-03-08T13:24:29;8.10;99.90
48488;DHT22;34289;48.572;13.378;2023-03-08T13:29:46;8.00;99.90
48488;DHT22;34289;48.572;13.378;2023-03-08T13:32:16;8.10;99.90
48488;DHT22;34289;48.572;13.378;2023-03-08T13:34:42;8.00;99.90
48488;DHT22;34289;48.572;13.378;2023-03-08T13:37:21;7.90;99.90
48488;DHT22;34289;48.572;13.378;2023-03-08T13:39:54;7.70;99.90
48488;DHT22;34289;48.572;13.378;2023-03-08T13:42:22;8.40;99.90
48488;DHT22;34289;48.572;13.378;2023-03-08T13:44:52;7.70;99.90
48488;DHT22;34289;48.572;13.378;2023-03-08T13:47:29;7.80;99.90
48488;DHT22;34289;48.572;13.378;2023-03-08T13:49:57;7.80;99.90
48488;DHT22;34289;48.572;13.378;2023-03-08T13:52:31;7.80;99.90
48488;DHT22;34289;48.572;13.378;2023-03-08T13:55:04;7.90;99.90
48488;DHT22;34289;48.572;13.378;2023-03-08T13:57:36;8.00;99.90
48488;DHT22;34289;48.572;13.378;2023-03-08T14:02:45;8.00;99.90
48488;DHT22;34289;48.572;13.378;2023-03-08T14:05:21;7.90;99.90
48488;DHT22;34289;48.572;13.378;2023-03-08T14:10:48;8.10;99.90
48488;DHT22;34289;48.572;13.378;2023-03-08T14:13:19;8.50;99.90
48488;DHT22;34289;48.572;13.378;2023-03-08T14:15:50;8.20;99.90
48488;DHT22;34289;48.572;13.378;2023-03-08T14:18:40;8.10;99.90
48488;DHT22;34289;48.572;13.378;2023-03-08T14:21:20;8.00;99.90
48488;DHT22;34289;48.572;13.378;2023-03-08T14:23:57;8.70;99.90
48488;DHT22;34289;48.572;13.378;2023-03-08T14:26:39;8.00;99.90
48488;DHT22;34289;48.572;13.378;2023-03-08T14:29:23;8.00;99.90
48488;DHT22;34289;48.572;13.378;2023-03-08T14:34:33;8.00;99.90
48488;DHT22;34289;48.572;13.378;2023-03-08T14:37:25;8.10;99.90
48488;DHT22;34289;48.572;13.378;2023-03-08T14:40:44;8.20;99.90
48488;DHT22;34289;48.572;13.378;2023-03-08T14:42:45;8.30;99.90
48488;DHT22;34289;48.572;13.378;2023-03-08T14:45:40;8.30;99.90
48488;DHT22;34289;48.572;13.378;2023-03-08T14:53:38;8.30;99.90
48488;DHT22;34289;48.572;13.378;2023-03-08T14:56:09;8.50;99.90
48488;DHT22;34289;48.572;13.378;2023-03-08T14:58:38;8.30;99.90
48488;DHT22;34289;48.572;13.378;2023-03-08T15:01:04;9.20;99.90
48488;DHT22;34289;48.572;13.378;2023-03-08T15:03:31;8.40;99.90
48488;DHT22;34289;48.572;13.378;2023-03-08T15:05:57;8.30;99.90
48488;DHT22;34289;48.572;13.378;2023-03-08T15:08:23;9.20;99.90
48488;DHT22;34289;48.572;13.378;2023-03-08T15:10:50;8.80;99.90
48488;DHT22;34289;48.572;13.378;2023-03-08T15:13:20;8.40;99.90
48488;DHT22;34289;48.572;13.378;2023-03-08T15:15:47;9.20;99.90
48488;DHT22;34289;48.572;13.378;2023-03-08T15:18:13;8.50;99.90
48488;DHT22;34289;48.572;13.378;2023-03-08T15:20:41;8.60;99.90
48488;DHT22;34289;48.572;13.378;2023-03-08T15:23:19;8.30;99.90
48488;DHT22;34289;48.572;13.378;2023-03-08T15:25:45;8.10;99.90
48488;DHT22;34289;48.572;13.378;2023-03-08T15:28:14;8.10;99.90
48488;DHT22;34289;48.572;13.378;2023-03-08T15:30:40;8.30;99.90
48488;DHT22;34289;48.572;13.378;2023-03-08T15:33:05;8.30;99.90
48488;DHT22;34289;48.572;13.378;2023-03-08T15:35:31;8.20;99.90
48488;DHT22;34289;48.572;13.378;2023-03-08T15:37:56;8.10;99.90
48488;DHT22;34289;48.572;13.378;2023-03-08T15:40:25;8.10;99.90
48488;DHT22;34289;48.572;13.378;2023-03-08T15:42:51;8.10;99.90
48488;DHT22;34289;48.572;13.378;2023-03-08T15:45:17;8.00;99.90
48488;DHT22;34289;48.572;13.378;2023-03-08T15:47:43;7.90;99.90
48488;DHT22;34289;48.572;13.378;2023-03-08T15:50:14;7.80;99.90
48488;DHT22;34289;48.572;13.378;2023-03-08T15:52:40;8.20;99.90
48488;DHT22;34289;48.572;13.378;2023-03-08T15:55:07;8.30;99.90
48488;DHT22;34289;48.572;13.378;2023-03-08T15:57:32;8.20;99.90
48488;DHT22;34289;48.572;13.378;2023-03-08T16:00:02;8.20;99.90
48488;DHT22;34289;48.572;13.378;2023-03-08T16:02:31;8.00;99.90
48488;DHT22;34289;48.572;13.378;2023-03-08T16:04:56;8.10;99.90
48488;DHT22;34289;48.572;13.378;2023-03-08T16:07:22;8.00;99.90
48488;DHT22;34289;48.572;13.378;2023-03-08T16:09:48;8.00;99.90
48488;DHT22;34289;48.572;13.378;2023-03-08T16:12:14;8.00;99.90
48488;DHT22;34289;48.572;13.378;2023-03-08T16:14:45;8.00;99.90
48488;DHT22;34289;48.572;13.378;2023-03-08T16:17:11;7.70;99.90
48488;DHT22;34289;48.572;13.378;2023-03-08T16:19:37;8.30;99.90
48488;DHT22;34289;48.572;13.378;2023-03-08T16:22:03;7.80;99.90
48488;DHT22;34289;48.572;13.378;2023-03-08T16:24:29;7.80;99.90
48488;DHT22;34289;48.572;13.378;2023-03-08T16:26:55;7.80;99.90
48488;DHT22;34289;48.572;13.378;2023-03-08T16:29:22;7.70;99.90
48488;DHT22;34289;48.572;13.378;2023-03-08T16:31:48;7.60;99.90
48488;DHT22;34289;48.572;13.378;2023-03-08T16:34:14;7.70;99.90
48488;DHT22;34289;48.572;13.378;2023-03-08T16:36:40;7.50;99.90
48488;DHT22;34289;48.572;13.378;2023-03-08T16:39:06;7.60;99.90
48488;DHT22;34289;48.572;13.378;2023-03-08T16:41:39;7.30;99.90
48488;DHT22;34289;48.572;13.378;2023-03-08T16:44:06;7.30;99.90
48488;DHT22;34289;48.572;13.378;2023-03-08T16:46:31;7.90;99.90
48488;DHT22;34289;48.572;13.378;2023-03-08T16:48:57;6.90;99.90
48488;DHT22;34289;48.572;13.378;2023-03-08T16:51:26;7.40;99.90
48488;DHT22;34289;48.572;13.378;2023-03-08T16:53:53;7.20;99.90
48488;DHT22;34289;48.572;13.378;2023-03-08T16:56:26;7.10;99.90
48488;DHT22;34289;48.572;13.378;2023-03-08T16:58:53;7.00;99.90
48488;DHT22;34289;48.572;13.378;2023-03-08T17:01:19;7.00;99.90
48488;DHT22;34289;48.572;13.378;2023-03-08T17:03:45;6.90;99.90
48488;DHT22;34289;48.572;13.378;2023-03-08T17:06:13;7.00;99.90
48488;DHT22;34289;48.572;13.378;2023-03-08T17:08:39;7.60;99.90
48488;DHT22;34289;48.572;13.378;2023-03-08T17:11:06;7.40;99.90
48488;DHT22;34289;48.572;13.378;2023-03-08T17:13:38;6.90;99.90
48488;DHT22;34289;48.572;13.378;2023-03-08T17:16:04;6.80;99.90